createdAt,value
2023-04-18T00:02:24.387Z,6.72
2023-04-18T00:05:12.486Z,6.82
2023-04-18T00:07:58.372Z,6.68
2023-04-18T00:10:44.703Z,7.27
2023-04-18T00:13:30.264Z,7.25
2023-04-18T00:16:16.777Z,6.38
2023-04-18T00:19:04.931Z,6.61
2023-04-18T00:21:53.612Z,7.00
2023-04-18T00:24:40.511Z,7.15
2023-04-18T00:27:27.313Z,6.82
2023-04-18T00:30:13.802Z,6.97
2023-04-18T00:32:59.891Z,7.04
2023-04-18T00:35:45.976Z,7.07
2023-04-18T00:38:33.891Z,6.44
2023-04-18T00:41:20.746Z,6.98
2023-04-18T00:44:07.646Z,7.37
2023-04-18T00:46:54.425Z,7.32
2023-04-18T00:49:40.891Z,7.33
2023-04-18T00:52:27.937Z,6.79
2023-04-18T00:55:14.226Z,7.25
2023-04-18T00:58:00.215Z,6.95
2023-04-18T01:00:47.314Z,6.47
2023-04-18T01:03:35.673Z,6.37
2023-04-18T01:06:22.951Z,7.07
2023-04-18T01:09:08.909Z,7.21
2023-04-18T01:11:55.410Z,6.93
2023-04-18T01:14:44.581Z,6.67
2023-04-18T01:17:32.026Z,6.95
2023-04-18T01:20:17.718Z,6.93
2023-04-18T01:23:04.049Z,6.97
2023-04-18T01:25:50.078Z,6.79
2023-04-18T01:28:37.675Z,6.97
2023-04-18T01:31:23.589Z,6.88
2023-04-18T01:34:10.769Z,6.78
2023-04-18T01:36:56.431Z,7.15
2023-04-18T01:39:42.612Z,7.33
2023-04-18T01:42:30.040Z,6.64
2023-04-18T01:45:17.302Z,6.78
2023-04-18T01:48:03.364Z,6.71
2023-04-18T01:50:49.610Z,6.89
2023-04-18T01:53:35.295Z,6.83
2023-04-18T01:56:22.006Z,6.80
2023-04-18T01:59:07.872Z,6.72
2023-04-18T02:01:55.559Z,6.93
2023-04-18T02:04:43.291Z,6.87
2023-04-18T02:07:29.838Z,6.53
2023-04-18T02:10:16.081Z,6.66
2023-04-18T02:13:02.385Z,6.82
2023-04-18T02:15:48.984Z,6.66
2023-04-18T02:18:35.354Z,6.71
2023-04-18T02:21:22.098Z,6.92
2023-04-18T02:24:08.851Z,6.92
2023-04-18T02:26:54.550Z,6.77
2023-04-18T02:29:41.126Z,6.93
2023-04-18T02:32:27.063Z,7.04
2023-04-18T02:35:13.543Z,6.94
2023-04-18T02:37:59.818Z,6.80
2023-04-18T02:40:46.342Z,6.77
2023-04-18T02:43:32.120Z,6.77
2023-04-18T02:46:18.444Z,6.52
2023-04-18T02:49:07.513Z,6.71
2023-04-18T02:51:58.012Z,6.50
2023-04-18T02:54:44.245Z,6.70
2023-04-18T02:57:35.270Z,6.20
2023-04-18T03:00:38.833Z,6.95
2023-04-18T03:03:43.992Z,6.41
2023-04-18T03:06:49.112Z,6.59
2023-04-18T03:09:36.941Z,6.91
2023-04-18T03:12:30.641Z,6.91
2023-04-18T03:15:17.099Z,6.44
2023-04-18T03:18:03.151Z,6.56
2023-04-18T03:20:53.267Z,6.40
2023-04-18T03:23:39.455Z,6.40
2023-04-18T03:26:26.620Z,6.53
2023-04-18T03:29:13.861Z,6.39
2023-04-18T03:32:04.265Z,6.81
2023-04-18T03:34:51.445Z,6.85
2023-04-18T03:37:38.028Z,6.80
2023-04-18T03:40:24.261Z,6.44
2023-04-18T03:43:13.524Z,6.87
2023-04-18T03:46:00.494Z,6.85
2023-04-18T03:48:47.647Z,6.85
2023-04-18T03:51:41.802Z,6.56
2023-04-18T03:54:27.932Z,6.36
2023-04-18T03:57:13.718Z,6.69
2023-04-18T04:00:01.053Z,6.88
2023-04-18T04:02:50.463Z,6.30
2023-04-18T04:05:40.255Z,6.73
2023-04-18T04:08:27.667Z,6.60
2023-04-18T04:11:14.566Z,6.92
2023-04-18T04:14:01.335Z,6.92
2023-04-18T04:16:53.993Z,6.88
2023-04-18T04:19:40.728Z,6.41
2023-04-18T04:22:32.848Z,6.25
2023-04-18T04:25:19.621Z,6.44
2023-04-18T04:28:07.023Z,6.78
2023-04-18T04:31:01.745Z,6.38
2023-04-18T04:33:48.279Z,6.42
2023-04-18T04:36:37.920Z,6.63
2023-04-18T04:39:26.074Z,6.90
2023-04-18T04:42:29.524Z,6.38
2023-04-18T04:45:24.623Z,6.58
2023-04-18T04:48:11.602Z,6.41
2023-04-18T04:51:00.188Z,6.38
2023-04-18T04:53:47.469Z,6.36
2023-04-18T04:56:33.716Z,6.45
2023-04-18T04:59:19.814Z,6.19
2023-04-18T05:02:06.210Z,6.71
2023-04-18T05:04:52.239Z,6.68
2023-04-18T05:07:38.449Z,6.20
2023-04-18T05:10:24.599Z,6.70
2023-04-18T05:13:13.091Z,6.67
2023-04-18T05:15:59.395Z,6.51
2023-04-18T05:18:46.220Z,6.98
2023-04-18T05:21:33.019Z,6.91
2023-04-18T05:24:19.788Z,6.95
2023-04-18T05:27:06.417Z,6.65
2023-04-18T05:29:53.043Z,6.61
2023-04-18T05:32:39.332Z,6.69
2023-04-18T05:35:26.899Z,7.06
2023-04-18T05:38:12.649Z,7.14
2023-04-18T05:41:00.538Z,7.23
2023-04-18T05:43:54.186Z,6.41
2023-04-18T05:46:45.146Z,6.73
2023-04-18T05:49:31.170Z,6.80
2023-04-18T05:52:21.069Z,7.05
2023-04-18T05:55:07.642Z,7.05
2023-04-18T05:57:53.998Z,6.93
2023-04-18T06:00:39.930Z,6.86
2023-04-18T06:03:26.476Z,7.21
2023-04-18T06:06:13.034Z,6.97
2023-04-18T06:08:59.606Z,7.54
2023-04-18T06:11:45.682Z,7.13
2023-04-18T06:14:31.941Z,6.75
2023-04-18T06:17:18.457Z,7.15
2023-04-18T06:20:06.357Z,6.94
2023-04-18T06:22:52.415Z,7.71
2023-04-18T06:25:41.768Z,7.04
2023-04-18T06:28:28.653Z,7.36
2023-04-18T06:31:15.586Z,7.47
2023-04-18T06:34:01.980Z,7.37
2023-04-18T06:36:49.405Z,7.67
2023-04-18T06:39:35.131Z,7.90
2023-04-18T06:42:22.589Z,7.46
2023-04-18T06:45:12.660Z,7.65
2023-04-18T06:55:51.410Z,7.60
2023-04-18T06:59:09.045Z,8.42
2023-04-18T07:02:36.830Z,8.51
2023-04-18T07:06:05.630Z,8.14
2023-04-18T07:09:20.412Z,8.66
2023-04-18T07:13:09.453Z,8.71
2023-04-18T07:16:24.722Z,8.77
2023-04-18T07:19:51.308Z,8.46
2023-04-18T07:23:01.977Z,8.64
2023-04-18T07:29:42.324Z,8.89
2023-04-18T07:33:24.136Z,8.93
2023-04-18T07:36:51.729Z,8.99
2023-04-18T07:40:30.731Z,9.04
2023-04-18T07:44:21.496Z,9.09
2023-04-18T07:47:38.647Z,8.84
2023-04-18T07:51:42.594Z,9.11
2023-04-18T07:55:07.685Z,9.17
2023-04-18T08:22:15.942Z,9.04
2023-04-18T08:25:51.534Z,9.45
2023-04-18T08:29:02.389Z,9.30
2023-04-18T08:32:04.478Z,9.63
2023-04-18T08:35:31.360Z,9.70
2023-04-18T08:42:11.551Z,10.11
2023-04-18T08:45:13.810Z,10.12
2023-04-18T08:48:41.238Z,10.21
2023-04-18T08:52:26.494Z,10.26
2023-04-18T08:55:29.154Z,10.31
2023-04-18T09:06:21.059Z,10.39
2023-04-18T09:09:56.277Z,10.60
2023-04-18T09:13:00.960Z,10.61
2023-04-18T09:20:18.953Z,10.86
2023-04-18T09:28:55.874Z,10.89
2023-04-18T09:31:54.528Z,10.62
2023-04-18T09:34:42.578Z,10.82
2023-04-18T09:37:29.337Z,10.75
2023-04-18T09:40:19.315Z,10.70
2023-04-18T09:43:19.552Z,10.70
2023-04-18T09:46:06.185Z,10.69
2023-04-18T09:48:52.224Z,10.91
2023-04-18T09:51:40.496Z,10.57
2023-04-18T09:54:26.324Z,10.95
2023-04-18T09:57:13.976Z,10.85
2023-04-18T10:00:14.172Z,10.99
2023-04-18T10:03:08.417Z,10.82
2023-04-18T10:05:55.866Z,11.01
2023-04-18T10:08:48.085Z,10.82
2023-04-18T10:11:34.176Z,10.81
2023-04-18T10:14:21.416Z,10.75
2023-04-18T10:17:07.646Z,11.26
2023-04-18T10:20:10.334Z,10.74
2023-04-18T10:22:57.935Z,11.10
2023-04-18T10:25:50.767Z,11.03
2023-04-18T10:28:54.928Z,11.17
2023-04-18T10:31:41.240Z,11.26
2023-04-18T10:34:27.177Z,11.15
2023-04-18T10:37:14.000Z,11.20
2023-04-18T10:40:05.851Z,11.56
2023-04-18T10:42:52.215Z,11.46
2023-04-18T10:45:38.398Z,11.53
2023-04-18T10:48:27.893Z,11.71
2023-04-18T10:51:23.248Z,11.51
2023-04-18T10:54:12.089Z,11.71
2023-04-18T10:56:59.760Z,11.71
2023-04-18T10:59:50.378Z,11.75
2023-04-18T11:02:36.240Z,11.77
2023-04-18T11:05:25.302Z,11.83
2023-04-18T11:08:24.399Z,11.90
2023-04-18T11:11:11.460Z,11.84
2023-04-18T11:13:59.273Z,11.80
2023-04-18T11:16:45.825Z,12.09
2023-04-18T11:19:31.518Z,12.13
2023-04-18T11:22:18.218Z,12.07
2023-04-18T11:25:10.169Z,12.19
2023-04-18T11:27:59.264Z,12.24
2023-04-18T11:30:45.052Z,12.35
2023-04-18T11:33:31.435Z,12.28
2023-04-18T11:36:17.168Z,12.07
2023-04-18T11:39:03.497Z,12.62
2023-04-18T11:41:50.712Z,12.43
2023-04-18T11:44:39.956Z,12.17
2023-04-18T11:47:30.361Z,12.74
2023-04-18T11:50:16.730Z,12.64
2023-04-18T11:53:02.440Z,12.34
2023-04-18T11:55:55.932Z,12.82
2023-04-18T11:58:43.180Z,12.84
2023-04-18T12:01:29.045Z,12.94
2023-04-18T12:04:16.816Z,12.84
2023-04-18T12:07:03.996Z,12.95
2023-04-18T12:09:52.388Z,13.00
2023-04-18T12:12:48.518Z,12.94
2023-04-18T12:15:37.013Z,12.88
2023-04-18T12:18:23.561Z,12.88
2023-04-18T12:21:10.513Z,13.12
2023-04-18T12:23:57.511Z,13.17
2023-04-18T12:26:46.129Z,13.03
2023-04-18T12:29:32.457Z,13.19
2023-04-18T12:32:18.912Z,13.19
2023-04-18T12:35:06.441Z,13.06
2023-04-18T12:37:53.986Z,12.98
2023-04-18T12:40:41.077Z,13.11
2023-04-18T12:43:27.189Z,13.20
2023-04-18T12:46:13.618Z,13.22
2023-04-18T12:49:00.863Z,12.92
2023-04-18T12:51:46.787Z,13.25
2023-04-18T12:54:32.630Z,13.29
2023-04-18T12:57:18.711Z,13.28
2023-04-18T13:00:10.612Z,13.26
2023-04-18T13:02:56.929Z,13.04
2023-04-18T13:05:43.445Z,13.20
2023-04-18T13:08:29.612Z,12.80
2023-04-18T13:11:15.602Z,13.11
2023-04-18T13:14:01.983Z,12.93
2023-04-18T13:16:48.847Z,13.15
2023-04-18T13:19:35.248Z,13.30
2023-04-18T13:22:21.996Z,13.23
2023-04-18T13:25:10.581Z,13.16
2023-04-18T13:27:58.744Z,13.40
2023-04-18T13:30:45.098Z,13.35
2023-04-18T13:33:30.718Z,13.39
2023-04-18T13:36:16.674Z,13.02
2023-04-18T13:39:04.698Z,13.34
2023-04-18T13:41:53.726Z,13.36
2023-04-18T13:44:39.738Z,13.09
2023-04-18T13:47:26.139Z,13.19
2023-04-18T13:50:12.392Z,13.24
2023-04-18T13:52:58.241Z,13.16
2023-04-18T13:55:43.697Z,13.24
2023-04-18T13:58:29.911Z,13.03
2023-04-18T14:01:16.771Z,13.19
2023-04-18T14:04:03.792Z,13.15
2023-04-18T14:06:50.549Z,13.49
2023-04-18T14:09:36.708Z,13.22
2023-04-18T14:12:52.531Z,13.46
2023-04-18T14:19:04.881Z,13.51
2023-04-18T14:21:51.140Z,13.31
2023-04-18T14:24:36.717Z,13.34
2023-04-18T14:27:23.533Z,13.16
2023-04-18T14:30:10.343Z,13.56
2023-04-18T14:32:56.786Z,13.42
2023-04-18T14:35:43.983Z,13.64
2023-04-18T14:38:30.196Z,13.25
2023-04-18T14:41:16.630Z,13.69
2023-04-18T14:44:04.215Z,13.74
2023-04-18T14:46:50.916Z,13.47
2023-04-18T14:49:37.436Z,13.11
2023-04-18T14:52:23.861Z,13.62
2023-04-18T14:55:10.329Z,13.39
2023-04-18T14:57:56.428Z,13.76
2023-04-18T15:00:42.680Z,13.64
2023-04-18T15:03:29.055Z,13.41
2023-04-18T15:06:16.089Z,13.19
2023-04-18T15:09:02.069Z,13.35
2023-04-18T15:11:48.409Z,13.15
2023-04-18T15:14:37.493Z,13.31
2023-04-18T15:17:24.551Z,13.56
2023-04-18T15:20:10.653Z,13.55
2023-04-18T15:22:57.185Z,13.12
2023-04-18T15:25:44.915Z,13.53
2023-04-18T15:28:33.760Z,13.18
2023-04-18T15:31:23.666Z,13.33
2023-04-18T15:34:15.589Z,13.06
2023-04-18T15:37:11.050Z,13.42
2023-04-18T15:39:59.323Z,13.14
2023-04-18T15:42:51.323Z,13.27
2023-04-18T15:45:39.185Z,12.84
2023-04-18T15:48:36.468Z,13.06
2023-04-18T15:51:28.190Z,13.19
2023-04-18T15:54:15.529Z,12.95
2023-04-18T15:57:04.310Z,13.21
2023-04-18T15:59:50.474Z,13.16
2023-04-18T16:02:36.788Z,12.86
2023-04-18T16:05:24.061Z,12.60
2023-04-18T16:08:11.633Z,13.12
2023-04-18T16:11:11.942Z,13.16
2023-04-18T16:14:00.981Z,13.15
2023-04-18T16:16:48.782Z,13.13
2023-04-18T16:19:41.393Z,13.13
2023-04-18T16:22:28.937Z,12.74
2023-04-18T16:25:16.610Z,13.13
2023-04-18T16:28:02.326Z,13.05
2023-04-18T16:30:56.582Z,12.73
2023-04-18T16:34:00.461Z,12.95
2023-04-18T16:37:07.384Z,13.08
2023-04-18T16:39:54.176Z,13.05
2023-04-18T16:42:41.697Z,13.04
2023-04-18T16:45:31.952Z,13.01
2023-04-18T16:48:19.067Z,12.72
2023-04-18T16:51:06.121Z,12.39
2023-04-18T16:53:52.332Z,12.81
2023-04-18T16:56:40.131Z,12.62
2023-04-18T16:59:26.111Z,12.68
2023-04-18T17:02:13.708Z,12.63
2023-04-18T17:05:00.791Z,12.60
2023-04-18T17:07:51.791Z,12.55
2023-04-18T17:10:40.614Z,12.48
2023-04-18T17:13:29.045Z,12.45
2023-04-18T17:16:20.260Z,12.35
2023-04-18T17:19:10.358Z,12.14
2023-04-18T17:21:56.967Z,11.72
2023-04-18T17:24:45.280Z,11.77
2023-04-18T17:27:31.872Z,12.27
2023-04-18T17:30:21.386Z,12.22
2023-04-18T17:33:11.000Z,12.18
2023-04-18T17:35:57.827Z,11.92
2023-04-18T17:38:49.512Z,11.99
2023-04-18T17:41:38.560Z,12.05
2023-04-18T17:44:25.965Z,12.00
2023-04-18T17:47:14.070Z,11.75
2023-04-18T17:50:03.180Z,11.72
2023-04-18T17:52:50.063Z,11.92
2023-04-18T17:55:40.172Z,11.79
2023-04-18T17:58:27.792Z,11.62
2023-04-18T18:01:20.017Z,11.78
2023-04-18T18:04:07.208Z,11.58
2023-04-18T18:06:54.736Z,11.59
2023-04-18T18:09:42.362Z,11.52
2023-04-18T18:12:28.766Z,11.27
2023-04-18T18:15:15.448Z,11.22
2023-04-18T18:18:02.374Z,11.12
2023-04-18T18:20:48.884Z,11.38
2023-04-18T18:23:34.487Z,11.33
2023-04-18T18:26:20.540Z,11.40
2023-04-18T18:29:09.497Z,11.35
2023-04-18T18:31:55.451Z,11.29
2023-04-18T18:34:41.009Z,11.11
2023-04-18T18:37:27.702Z,11.15
2023-04-18T18:40:13.734Z,11.07
2023-04-18T18:43:00.647Z,11.11
2023-04-18T18:45:46.452Z,11.04
2023-04-18T18:48:33.066Z,10.61
2023-04-18T18:51:19.311Z,10.57
2023-04-18T18:54:05.821Z,10.98
2023-04-18T18:56:52.370Z,10.94
2023-04-18T18:59:38.760Z,10.62
2023-04-18T19:02:25.359Z,10.23
2023-04-18T19:05:13.217Z,10.82
2023-04-18T19:07:59.695Z,10.46
2023-04-18T19:10:46.120Z,10.58
2023-04-18T19:13:31.652Z,10.66
2023-04-18T19:16:18.214Z,10.52
2023-04-18T19:19:04.390Z,10.33
2023-04-18T19:21:51.002Z,10.18
2023-04-18T19:24:37.131Z,10.31
2023-04-18T19:27:23.274Z,10.33
2023-04-18T19:30:10.651Z,9.81
2023-04-18T19:32:56.886Z,9.95
2023-04-18T19:35:43.536Z,10.18
2023-04-18T19:38:29.971Z,10.04
2023-04-18T19:41:15.896Z,9.73
2023-04-18T19:44:01.952Z,9.97
2023-04-18T19:46:47.536Z,9.44
2023-04-18T19:49:33.832Z,9.68
2023-04-18T19:52:19.309Z,9.75
2023-04-18T19:55:05.650Z,9.72
2023-04-18T19:57:55.516Z,9.66
2023-04-18T20:00:42.010Z,9.21
2023-04-18T20:03:28.087Z,9.09
2023-04-18T20:06:14.312Z,9.56
2023-04-18T20:09:00.614Z,9.52
2023-04-18T20:11:47.987Z,9.51
2023-04-18T20:14:33.706Z,9.46
2023-04-18T20:17:19.814Z,9.33
2023-04-18T20:20:08.871Z,9.48
2023-04-18T20:22:55.427Z,9.46
2023-04-18T20:25:41.613Z,9.47
2023-04-18T20:28:27.838Z,8.96
2023-04-18T20:31:13.712Z,9.40
2023-04-18T20:34:00.339Z,9.26
2023-04-18T20:36:46.589Z,8.94
2023-04-18T20:39:33.460Z,9.02
2023-04-18T20:42:19.491Z,9.27
2023-04-18T20:45:06.740Z,9.14
2023-04-18T20:47:52.637Z,8.79
2023-04-18T20:50:40.275Z,8.61
2023-04-18T20:53:27.202Z,9.04
2023-04-18T20:56:13.604Z,9.15
2023-04-18T20:58:59.344Z,9.17
2023-04-18T21:01:45.865Z,9.15
2023-04-18T21:04:31.799Z,9.13
2023-04-18T21:07:18.294Z,8.98
2023-04-18T21:10:04.681Z,8.95
2023-04-18T21:12:51.042Z,9.01
2023-04-18T21:15:36.925Z,8.78
2023-04-18T21:18:24.080Z,8.61
2023-04-18T21:21:10.075Z,8.57
2023-04-18T21:23:56.733Z,8.95
2023-04-18T21:26:42.771Z,8.90
2023-04-18T21:29:28.846Z,8.74
2023-04-18T21:32:14.649Z,8.64
2023-04-18T21:35:01.718Z,8.68
2023-04-18T21:37:47.968Z,8.74
2023-04-18T21:40:34.574Z,8.67
2023-04-18T21:43:20.814Z,8.65
2023-04-18T21:46:07.072Z,8.43
2023-04-18T21:48:53.081Z,8.14
2023-04-18T21:51:39.227Z,8.55
2023-04-18T21:54:24.818Z,7.93
2023-04-18T21:57:10.819Z,8.48
2023-04-18T21:59:57.700Z,8.40
2023-04-18T22:02:44.008Z,8.28
2023-04-18T22:05:30.491Z,8.29
2023-04-18T22:08:16.975Z,8.27
2023-04-18T22:11:04.828Z,7.89
2023-04-18T22:13:54.209Z,8.21
2023-04-18T22:16:40.512Z,8.09
2023-04-18T22:19:29.906Z,8.13
2023-04-18T22:22:15.874Z,8.11
2023-04-18T22:25:02.261Z,8.06
2023-04-18T22:27:48.548Z,8.04
2023-04-18T22:30:34.670Z,7.93
2023-04-18T22:33:20.981Z,8.11
2023-04-18T22:36:07.460Z,7.95
2023-04-18T22:38:53.360Z,7.36
2023-04-18T22:41:39.468Z,7.99
2023-04-18T22:44:25.095Z,7.81
2023-04-18T22:47:11.699Z,7.95
2023-04-18T22:49:57.756Z,7.96
2023-04-18T22:52:44.167Z,7.44
2023-04-18T22:55:29.733Z,7.80
2023-04-18T22:58:16.266Z,7.55
2023-04-18T23:01:01.853Z,7.31
2023-04-18T23:03:48.452Z,7.57
2023-04-18T23:06:35.971Z,7.08
2023-04-18T23:09:22.241Z,7.11
2023-04-18T23:12:08.146Z,7.15
2023-04-18T23:14:54.234Z,7.24
2023-04-18T23:17:40.276Z,6.82
2023-04-18T23:20:26.249Z,7.23
2023-04-18T23:23:12.003Z,7.04
2023-04-18T23:25:58.712Z,6.90
2023-04-18T23:28:45.034Z,7.30
2023-04-18T23:31:33.060Z,6.80
2023-04-18T23:34:19.280Z,7.31
2023-04-18T23:37:05.891Z,7.06
2023-04-18T23:39:51.684Z,7.20
2023-04-18T23:42:38.345Z,7.24
2023-04-18T23:45:24.641Z,7.08
2023-04-18T23:48:11.460Z,7.09
2023-04-18T23:50:57.309Z,6.80
2023-04-18T23:53:43.497Z,7.15
2023-04-18T23:56:29.754Z,6.90
2023-04-18T23:59:16.363Z,6.92
